sensor_id;sensor_type;location;lat;lon;timestamp;pressure;altitude;pressure_sealevel;temperature;humidity
58757;BME280;44527;47.460;19.016;2022-09-09T00:02:53;99971.09;;;17.78;100.00
58757;BME280;44527;47.460;19.016;2022-09-09T00:06:24;99964.00;;;17.87;100.00
58757;BME280;44527;47.460;19.016;2022-09-09T00:09:32;99975.06;;;18.00;100.00
58757;BME280;44527;47.460;19.016;2022-09-09T00:16:15;99955.22;;;17.86;100.00
58757;BME280;44527;47.460;19.016;2022-09-09T00:19:43;99964.25;;;17.76;100.00
58757;BME280;44527;47.460;19.016;2022-09-09T00:23:12;99989.22;;;17.65;100.00
58757;BME280;44527;47.460;19.016;2022-09-09T00:26:31;99982.25;;;17.64;100.00
58757;BME280;44527;47.460;19.016;2022-09-09T00:29:50;99977.56;;;17.58;100.00
58757;BME280;44527;47.460;19.016;2022-09-09T00:33:01;99977.09;;;17.62;100.00
58757;BME280;44527;47.460;19.016;2022-09-09T00:36:12;99981.66;;;17.70;100.00
58757;BME280;44527;47.460;19.016;2022-09-09T00:39:32;99980.50;;;17.73;100.00
58757;BME280;44527;47.460;19.016;2022-09-09T00:42:41;99988.47;;;17.73;100.00
58757;BME280;44527;47.460;19.016;2022-09-09T00:59:04;99979.91;;;17.79;100.00
58757;BME280;44527;47.460;19.016;2022-09-09T01:05:50;99992.31;;;17.78;100.00
58757;BME280;44527;47.460;19.016;2022-09-09T01:09:04;100006.03;;;17.74;100.00
58757;BME280;44527;47.460;19.016;2022-09-09T01:12:23;100013.63;;;17.68;100.00
58757;BME280;44527;47.460;19.016;2022-09-09T01:15:29;100013.94;;;17.65;100.00
58757;BME280;44527;47.460;19.016;2022-09-09T01:18:38;100007.97;;;17.63;100.00
58757;BME280;44527;47.460;19.016;2022-09-09T01:21:45;100007.44;;;17.60;100.00
58757;BME280;44527;47.460;19.016;2022-09-09T01:25:22;100014.56;;;17.59;100.00
58757;BME280;44527;47.460;19.016;2022-09-09T01:28:28;100015.47;;;17.50;100.00
58757;BME280;44527;47.460;19.016;2022-09-09T01:31:37;100015.66;;;17.49;100.00
58757;BME280;44527;47.460;19.016;2022-09-09T01:34:40;100026.19;;;17.40;100.00
58757;BME280;44527;47.460;19.016;2022-09-09T01:37:43;100020.88;;;17.40;100.00
58757;BME280;44527;47.460;19.016;2022-09-09T01:40:45;100018.41;;;17.39;100.00
58757;BME280;44527;47.460;19.016;2022-09-09T01:43:49;100016.06;;;17.36;100.00
58757;BME280;44527;47.460;19.016;2022-09-09T01:46:53;100010.97;;;17.25;100.00
58757;BME280;44527;47.460;19.016;2022-09-09T01:49:56;100016.41;;;17.23;100.00
58757;BME280;44527;47.460;19.016;2022-09-09T01:52:59;100024.84;;;17.18;100.00
58757;BME280;44527;47.460;19.016;2022-09-09T02:00:03;100034.97;;;17.23;100.00
58757;BME280;44527;47.460;19.016;2022-09-09T02:03:25;100026.59;;;17.28;100.00
58757;BME280;44527;47.460;19.016;2022-09-09T02:09:33;100008.31;;;17.25;100.00
58757;BME280;44527;47.460;19.016;2022-09-09T02:12:45;99995.66;;;17.18;100.00
58757;BME280;44527;47.460;19.016;2022-09-09T02:16:11;100009.00;;;17.27;100.00
58757;BME280;44527;47.460;19.016;2022-09-09T02:19:22;100006.97;;;17.20;100.00
58757;BME280;44527;47.460;19.016;2022-09-09T02:22:31;100013.09;;;17.21;100.00
58757;BME280;44527;47.460;19.016;2022-09-09T02:25:38;100005.28;;;17.19;100.00
58757;BME280;44527;47.460;19.016;2022-09-09T02:28:42;100012.28;;;17.20;100.00
58757;BME280;44527;47.460;19.016;2022-09-09T02:31:46;100020.16;;;17.30;100.00
58757;BME280;44527;47.460;19.016;2022-09-09T02:34:58;100009.31;;;17.23;100.00
58757;BME280;44527;47.460;19.016;2022-09-09T02:38:07;100011.59;;;17.18;100.00
58757;BME280;44527;47.460;19.016;2022-09-09T02:41:11;100025.97;;;17.16;100.00
58757;BME280;44527;47.460;19.016;2022-09-09T02:44:16;100022.19;;;17.18;100.00
58757;BME280;44527;47.460;19.016;2022-09-09T02:50:45;100015.75;;;17.21;100.00
58757;BME280;44527;47.460;19.016;2022-09-09T02:57:21;100034.84;;;17.25;100.00
58757;BME280;44527;47.460;19.016;2022-09-09T03:00:27;100040.66;;;17.28;100.00
58757;BME280;44527;47.460;19.016;2022-09-09T03:03:31;100040.59;;;17.20;100.00
58757;BME280;44527;47.460;19.016;2022-09-09T03:06:34;100040.59;;;17.20;100.00
58757;BME280;44527;47.460;19.016;2022-09-09T03:09:38;100039.22;;;17.16;100.00
58757;BME280;44527;47.460;19.016;2022-09-09T03:12:41;100038.78;;;17.20;100.00
58757;BME280;44527;47.460;19.016;2022-09-09T03:15:44;100038.53;;;17.14;100.00
58757;BME280;44527;47.460;19.016;2022-09-09T03:18:47;100049.81;;;16.98;100.00
58757;BME280;44527;47.460;19.016;2022-09-09T03:21:50;100035.72;;;16.80;100.00
58757;BME280;44527;47.460;19.016;2022-09-09T03:24:52;100045.56;;;16.87;100.00
58757;BME280;44527;47.460;19.016;2022-09-09T03:27:55;100052.12;;;16.83;100.00
58757;BME280;44527;47.460;19.016;2022-09-09T03:31:02;100041.69;;;16.82;100.00
58757;BME280;44527;47.460;19.016;2022-09-09T03:34:06;100048.81;;;16.81;100.00
58757;BME280;44527;47.460;19.016;2022-09-09T03:37:10;100043.81;;;16.78;100.00
58757;BME280;44527;47.460;19.016;2022-09-09T03:40:14;100038.09;;;16.73;100.00
58757;BME280;44527;47.460;19.016;2022-09-09T03:43:17;100044.16;;;16.65;100.00
58757;BME280;44527;47.460;19.016;2022-09-09T03:46:21;100045.62;;;16.68;100.00
58757;BME280;44527;47.460;19.016;2022-09-09T03:49:25;100047.09;;;16.62;100.00
58757;BME280;44527;47.460;19.016;2022-09-09T03:52:29;100046.53;;;16.59;100.00
58757;BME280;44527;47.460;19.016;2022-09-09T03:55:33;100059.09;;;16.57;100.00
58757;BME280;44527;47.460;19.016;2022-09-09T03:58:36;100062.88;;;16.54;100.00
58757;BME280;44527;47.460;19.016;2022-09-09T04:01:39;100056.50;;;16.47;100.00
58757;BME280;44527;47.460;19.016;2022-09-09T04:04:42;100052.47;;;16.43;100.00
58757;BME280;44527;47.460;19.016;2022-09-09T04:07:44;100053.00;;;16.46;100.00
58757;BME280;44527;47.460;19.016;2022-09-09T04:10:48;100055.50;;;16.48;100.00
58757;BME280;44527;47.460;19.016;2022-09-09T04:13:52;100059.28;;;16.45;100.00
58757;BME280;44527;47.460;19.016;2022-09-09T04:16:54;100047.03;;;16.44;100.00
58757;BME280;44527;47.460;19.016;2022-09-09T04:19:58;100046.66;;;16.29;100.00
58757;BME280;44527;47.460;19.016;2022-09-09T04:23:01;100048.56;;;16.37;100.00
58757;BME280;44527;47.460;19.016;2022-09-09T04:26:04;100055.56;;;16.38;100.00
58757;BME280;44527;47.460;19.016;2022-09-09T04:29:07;100052.94;;;16.28;100.00
58757;BME280;44527;47.460;19.016;2022-09-09T04:32:09;100053.91;;;16.27;100.00
58757;BME280;44527;47.460;19.016;2022-09-09T04:35:14;100055.69;;;16.37;100.00
58757;BME280;44527;47.460;19.016;2022-09-09T04:38:17;100051.63;;;16.42;100.00
58757;BME280;44527;47.460;19.016;2022-09-09T04:41:20;100051.03;;;16.48;100.00
58757;BME280;44527;47.460;19.016;2022-09-09T04:44:23;100052.91;;;16.66;100.00
58757;BME280;44527;47.460;19.016;2022-09-09T04:47:26;100044.44;;;16.90;100.00
58757;BME280;44527;47.460;19.016;2022-09-09T04:50:28;100050.34;;;17.02;100.00
58757;BME280;44527;47.460;19.016;2022-09-09T04:53:33;100044.47;;;16.80;100.00
58757;BME280;44527;47.460;19.016;2022-09-09T04:56:37;100051.63;;;16.70;100.00
58757;BME280;44527;47.460;19.016;2022-09-09T04:59:40;100053.59;;;16.68;100.00
58757;BME280;44527;47.460;19.016;2022-09-09T05:02:42;100051.34;;;16.73;100.00
58757;BME280;44527;47.460;19.016;2022-09-09T05:05:45;100060.84;;;16.75;100.00
58757;BME280;44527;47.460;19.016;2022-09-09T05:08:47;100070.16;;;16.80;100.00
58757;BME280;44527;47.460;19.016;2022-09-09T05:11:52;100055.66;;;16.84;100.00
58757;BME280;44527;47.460;19.016;2022-09-09T05:14:55;100057.09;;;16.96;100.00
58757;BME280;44527;47.460;19.016;2022-09-09T05:17:59;100066.41;;;17.00;100.00
58757;BME280;44527;47.460;19.016;2022-09-09T05:21:02;100063.94;;;17.16;100.00
58757;BME280;44527;47.460;19.016;2022-09-09T05:24:05;100070.16;;;17.43;100.00
58757;BME280;44527;47.460;19.016;2022-09-09T05:27:07;100075.38;;;17.71;100.00
58757;BME280;44527;47.460;19.016;2022-09-09T05:30:13;100069.53;;;18.11;98.77
58757;BME280;44527;47.460;19.016;2022-09-09T05:33:15;100057.44;;;18.43;95.98
58757;BME280;44527;47.460;19.016;2022-09-09T05:36:20;100065.53;;;19.59;89.34
58757;BME280;44527;47.460;19.016;2022-09-09T05:39:23;100079.84;;;20.79;76.98
58757;BME280;44527;47.460;19.016;2022-09-09T05:42:29;100079.75;;;20.95;74.59
58757;BME280;44527;47.460;19.016;2022-09-09T05:45:33;100080.66;;;21.42;72.78
58757;BME280;44527;47.460;19.016;2022-09-09T05:48:37;100090.34;;;22.18;70.49
58757;BME280;44527;47.460;19.016;2022-09-09T05:51:41;100086.88;;;22.47;68.37
58757;BME280;44527;47.460;19.016;2022-09-09T05:54:45;100091.94;;;22.42;67.51
58757;BME280;44527;47.460;19.016;2022-09-09T05:57:50;100091.87;;;21.98;69.41
58757;BME280;44527;47.460;19.016;2022-09-09T06:01:00;100088.81;;;21.86;70.65
58757;BME280;44527;47.460;19.016;2022-09-09T06:04:03;100086.31;;;21.85;69.95
58757;BME280;44527;47.460;19.016;2022-09-09T06:07:06;100085.16;;;21.64;71.66
58757;BME280;44527;47.460;19.016;2022-09-09T06:10:10;100084.84;;;22.35;68.62
58757;BME280;44527;47.460;19.016;2022-09-09T06:13:12;100079.44;;;23.30;64.23
58757;BME280;44527;47.460;19.016;2022-09-09T06:16:18;100090.53;;;23.92;63.66
58757;BME280;44527;47.460;19.016;2022-09-09T06:19:21;100082.50;;;24.20;60.83
58757;BME280;44527;47.460;19.016;2022-09-09T06:22:23;100086.06;;;24.62;59.74
58757;BME280;44527;47.460;19.016;2022-09-09T06:25:26;100087.84;;;24.20;58.82
58757;BME280;44527;47.460;19.016;2022-09-09T06:28:29;100088.78;;;24.34;58.96
58757;BME280;44527;47.460;19.016;2022-09-09T06:31:33;100089.06;;;24.93;57.21
58757;BME280;44527;47.460;19.016;2022-09-09T06:34:38;100101.53;;;26.80;51.25
58757;BME280;44527;47.460;19.016;2022-09-09T06:37:45;100102.22;;;28.28;47.63
58757;BME280;44527;47.460;19.016;2022-09-09T06:40:52;100101.47;;;28.94;44.55
58757;BME280;44527;47.460;19.016;2022-09-09T06:43:57;100097.63;;;28.72;44.81
58757;BME280;44527;47.460;19.016;2022-09-09T06:47:04;100085.75;;;27.61;48.41
58757;BME280;44527;47.460;19.016;2022-09-09T06:50:07;100089.69;;;27.33;48.82
58757;BME280;44527;47.460;19.016;2022-09-09T06:53:10;100098.16;;;26.98;50.64
58757;BME280;44527;47.460;19.016;2022-09-09T06:59:25;100105.59;;;26.25;52.61
58757;BME280;44527;47.460;19.016;2022-09-09T07:02:29;100103.16;;;26.03;54.43
58757;BME280;44527;47.460;19.016;2022-09-09T07:05:32;100108.50;;;26.10;53.84
58757;BME280;44527;47.460;19.016;2022-09-09T07:08:35;100112.44;;;25.81;53.91
58757;BME280;44527;47.460;19.016;2022-09-09T07:11:40;100113.06;;;24.95;57.10
58757;BME280;44527;47.460;19.016;2022-09-09T07:14:44;100111.59;;;24.23;59.66
58757;BME280;44527;47.460;19.016;2022-09-09T07:17:47;100109.69;;;23.67;61.36
58757;BME280;44527;47.460;19.016;2022-09-09T07:20:54;100110.09;;;24.83;60.37
58757;BME280;44527;47.460;19.016;2022-09-09T07:24:00;100114.03;;;27.52;51.34
58757;BME280;44527;47.460;19.016;2022-09-09T07:27:03;100118.50;;;29.13;46.90
58757;BME280;44527;47.460;19.016;2022-09-09T07:30:07;100112.06;;;28.40;46.34
58757;BME280;44527;47.460;19.016;2022-09-09T07:33:10;100111.13;;;28.28;46.63
58757;BME280;44527;47.460;19.016;2022-09-09T07:36:18;100120.56;;;28.37;47.26
58757;BME280;44527;47.460;19.016;2022-09-09T07:39:23;100130.75;;;28.42;47.22
58757;BME280;44527;47.460;19.016;2022-09-09T07:42:28;100124.44;;;27.80;47.27
58757;BME280;44527;47.460;19.016;2022-09-09T07:45:33;100125.25;;;26.52;50.30
58757;BME280;44527;47.460;19.016;2022-09-09T07:48:35;100128.56;;;26.07;51.59
58757;BME280;44527;47.460;19.016;2022-09-09T07:51:43;100119.38;;;25.29;54.50
58757;BME280;44527;47.460;19.016;2022-09-09T07:54:47;100128.22;;;24.68;56.38
58757;BME280;44527;47.460;19.016;2022-09-09T07:57:49;100126.50;;;24.32;57.66
58757;BME280;44527;47.460;19.016;2022-09-09T08:00:52;100125.00;;;24.23;59.16
58757;BME280;44527;47.460;19.016;2022-09-09T08:04:04;100123.00;;;24.03;59.12
58757;BME280;44527;47.460;19.016;2022-09-09T08:07:06;100129.66;;;23.86;60.45
58757;BME280;44527;47.460;19.016;2022-09-09T08:10:10;100114.63;;;23.85;60.24
58757;BME280;44527;47.460;19.016;2022-09-09T08:13:13;100112.38;;;23.89;58.28
58757;BME280;44527;47.460;19.016;2022-09-09T08:16:23;100122.06;;;23.90;60.65
58757;BME280;44527;47.460;19.016;2022-09-09T08:19:26;100113.91;;;23.76;58.46
58757;BME280;44527;47.460;19.016;2022-09-09T08:22:32;100112.16;;;23.90;57.04
58757;BME280;44527;47.460;19.016;2022-09-09T08:25:34;100118.50;;;23.82;57.00
58757;BME280;44527;47.460;19.016;2022-09-09T08:28:38;100110.59;;;23.74;56.88
58757;BME280;44527;47.460;19.016;2022-09-09T08:31:43;100109.47;;;23.90;57.52
58757;BME280;44527;47.460;19.016;2022-09-09T08:34:46;100109.94;;;24.22;56.30
58757;BME280;44527;47.460;19.016;2022-09-09T08:37:53;100105.81;;;24.19;55.04
58757;BME280;44527;47.460;19.016;2022-09-09T08:41:06;100115.88;;;24.45;56.90
58757;BME280;44527;47.460;19.016;2022-09-09T08:47:44;100109.03;;;24.71;54.69
58757;BME280;44527;47.460;19.016;2022-09-09T08:50:51;100121.44;;;24.85;55.96
58757;BME280;44527;47.460;19.016;2022-09-09T08:53:55;100115.91;;;24.87;55.12
58757;BME280;44527;47.460;19.016;2022-09-09T08:57:01;100122.34;;;24.99;52.85
58757;BME280;44527;47.460;19.016;2022-09-09T09:00:09;100124.41;;;24.97;53.96
58757;BME280;44527;47.460;19.016;2022-09-09T09:09:51;100115.53;;;24.96;52.59
58757;BME280;44527;47.460;19.016;2022-09-09T09:12:56;100112.81;;;24.90;50.76
58757;BME280;44527;47.460;19.016;2022-09-09T09:16:06;100120.25;;;24.94;52.84
58757;BME280;44527;47.460;19.016;2022-09-09T09:19:16;100119.09;;;25.10;52.59
58757;BME280;44527;47.460;19.016;2022-09-09T09:22:39;100113.56;;;25.18;50.24
58757;BME280;44527;47.460;19.016;2022-09-09T09:25:46;100110.72;;;25.33;50.46
58757;BME280;44527;47.460;19.016;2022-09-09T09:28:48;100094.16;;;25.23;50.52
58757;BME280;44527;47.460;19.016;2022-09-09T09:31:56;100085.88;;;25.25;51.11
58757;BME280;44527;47.460;19.016;2022-09-09T09:35:10;100085.50;;;25.34;50.99
58757;BME280;44527;47.460;19.016;2022-09-09T09:38:23;100086.34;;;25.41;49.25
58757;BME280;44527;47.460;19.016;2022-09-09T09:41:47;100086.69;;;25.18;48.61
58757;BME280;44527;47.460;19.016;2022-09-09T09:44:50;100087.87;;;25.09;49.06
58757;BME280;44527;47.460;19.016;2022-09-09T09:47:58;100088.97;;;25.15;47.33
58757;BME280;44527;47.460;19.016;2022-09-09T09:51:10;100099.19;;;24.91;47.76
58757;BME280;44527;47.460;19.016;2022-09-09T09:54:27;100088.16;;;25.14;46.49
58757;BME280;44527;47.460;19.016;2022-09-09T09:57:33;100088.59;;;25.31;46.80
58757;BME280;44527;47.460;19.016;2022-09-09T10:00:47;100088.00;;;25.49;45.51
58757;BME280;44527;47.460;19.016;2022-09-09T10:03:53;100097.75;;;25.70;46.49
58757;BME280;44527;47.460;19.016;2022-09-09T10:06:55;100092.81;;;25.87;44.64
58757;BME280;44527;47.460;19.016;2022-09-09T10:09:58;100086.34;;;25.61;42.39
58757;BME280;44527;47.460;19.016;2022-09-09T10:13:24;100088.44;;;25.79;42.78
58757;BME280;44527;47.460;19.016;2022-09-09T10:20:07;100090.91;;;26.07;39.25
58757;BME280;44527;47.460;19.016;2022-09-09T10:26:55;100086.09;;;26.43;38.97
58757;BME280;44527;47.460;19.016;2022-09-09T10:30:19;100082.38;;;26.57;38.69
58757;BME280;44527;47.460;19.016;2022-09-09T10:34:25;100080.28;;;26.59;35.53
58757;BME280;44527;47.460;19.016;2022-09-09T10:37:46;100089.81;;;26.48;36.94
58757;BME280;44527;47.460;19.016;2022-09-09T10:45:18;100084.59;;;26.73;36.10
58757;BME280;44527;47.460;19.016;2022-09-09T10:48:48;100076.28;;;26.81;35.26
58757;BME280;44527;47.460;19.016;2022-09-09T10:56:20;100082.88;;;26.86;37.77
58757;BME280;44527;47.460;19.016;2022-09-09T10:59:33;100082.72;;;26.74;33.84
58757;BME280;44527;47.460;19.016;2022-09-09T11:02:39;100084.34;;;26.81;35.73
58757;BME280;44527;47.460;19.016;2022-09-09T11:05:46;100072.31;;;26.84;35.36
58757;BME280;44527;47.460;19.016;2022-09-09T11:08:51;100067.47;;;27.06;34.42
58757;BME280;44527;47.460;19.016;2022-09-09T11:11:59;100061.41;;;27.11;35.41
58757;BME280;44527;47.460;19.016;2022-09-09T11:15:08;100069.28;;;27.05;35.03
58757;BME280;44527;47.460;19.016;2022-09-09T11:18:19;100060.41;;;27.05;36.12
58757;BME280;44527;47.460;19.016;2022-09-09T11:21:25;100056.94;;;26.98;34.15
58757;BME280;44527;47.460;19.016;2022-09-09T11:24:42;100054.75;;;27.13;34.16
58757;BME280;44527;47.460;19.016;2022-09-09T11:34:50;100069.28;;;27.12;33.67
58757;BME280;44527;47.460;19.016;2022-09-09T11:38:08;100069.47;;;27.17;33.72
58757;BME280;44527;47.460;19.016;2022-09-09T11:41:14;100063.03;;;27.12;33.60
58757;BME280;44527;47.460;19.016;2022-09-09T11:44:29;100056.44;;;27.14;36.85
58757;BME280;44527;47.460;19.016;2022-09-09T11:47:33;100040.69;;;27.11;34.71
58757;BME280;44527;47.460;19.016;2022-09-09T11:50:36;100052.06;;;27.13;35.01
58757;BME280;44527;47.460;19.016;2022-09-09T11:53:55;100056.63;;;27.19;36.64
58757;BME280;44527;47.460;19.016;2022-09-09T11:56:58;100049.22;;;27.01;37.24
58757;BME280;44527;47.460;19.016;2022-09-09T12:00:03;100045.66;;;27.14;36.56
58757;BME280;44527;47.460;19.016;2022-09-09T12:03:35;100043.78;;;27.15;37.86
58757;BME280;44527;47.460;19.016;2022-09-09T12:06:54;100039.66;;;27.05;37.97
58757;BME280;44527;47.460;19.016;2022-09-09T12:10:20;100043.63;;;26.65;38.11
58757;BME280;44527;47.460;19.016;2022-09-09T12:13:25;100056.16;;;26.19;38.97
58757;BME280;44527;47.460;19.016;2022-09-09T12:16:36;100068.34;;;26.28;39.80
58757;BME280;44527;47.460;19.016;2022-09-09T12:19:40;100060.06;;;26.36;39.56
58757;BME280;44527;47.460;19.016;2022-09-09T12:23:04;100056.56;;;26.88;42.26
58757;BME280;44527;47.460;19.016;2022-09-09T12:33:09;100047.53;;;27.70;38.21
58757;BME280;44527;47.460;19.016;2022-09-09T12:36:32;100038.97;;;27.80;37.47
58757;BME280;44527;47.460;19.016;2022-09-09T12:39:45;100032.69;;;27.86;39.56
58757;BME280;44527;47.460;19.016;2022-09-09T12:42:49;100037.28;;;27.54;37.08
58757;BME280;44527;47.460;19.016;2022-09-09T12:45:56;100032.12;;;27.53;37.69
58757;BME280;44527;47.460;19.016;2022-09-09T12:49:00;100031.13;;;27.47;39.43
58757;BME280;44527;47.460;19.016;2022-09-09T12:52:32;100026.13;;;27.50;40.02
58757;BME280;44527;47.460;19.016;2022-09-09T12:55:37;100018.59;;;27.34;38.60
58757;BME280;44527;47.460;19.016;2022-09-09T12:58:46;100020.63;;;27.07;38.79
58757;BME280;44527;47.460;19.016;2022-09-09T13:01:56;100012.78;;;26.99;39.53
58757;BME280;44527;47.460;19.016;2022-09-09T13:05:13;100005.38;;;26.94;39.09
58757;BME280;44527;47.460;19.016;2022-09-09T13:08:17;99994.63;;;26.88;39.33
58757;BME280;44527;47.460;19.016;2022-09-09T13:11:27;99988.53;;;26.67;38.88
58757;BME280;44527;47.460;19.016;2022-09-09T13:14:33;99980.97;;;26.51;39.96
58757;BME280;44527;47.460;19.016;2022-09-09T13:17:39;99994.47;;;26.31;40.97
58757;BME280;44527;47.460;19.016;2022-09-09T13:20:47;99998.66;;;26.20;39.42
58757;BME280;44527;47.460;19.016;2022-09-09T13:23:50;99980.97;;;26.37;39.84
58757;BME280;44527;47.460;19.016;2022-09-09T13:26:55;99978.81;;;26.66;40.14
58757;BME280;44527;47.460;19.016;2022-09-09T13:29:58;99983.44;;;26.84;37.26
58757;BME280;44527;47.460;19.016;2022-09-09T13:33:19;99990.91;;;26.89;36.29
58757;BME280;44527;47.460;19.016;2022-09-09T13:36:33;99982.22;;;27.12;36.47
58757;BME280;44527;47.460;19.016;2022-09-09T13:39:37;99976.56;;;27.52;37.46
58757;BME280;44527;47.460;19.016;2022-09-09T13:42:41;99971.97;;;27.34;36.58
58757;BME280;44527;47.460;19.016;2022-09-09T13:45:53;99973.72;;;27.21;33.22
58757;BME280;44527;47.460;19.016;2022-09-09T13:49:01;99972.94;;;27.08;35.42
58757;BME280;44527;47.460;19.016;2022-09-09T13:52:08;99964.69;;;27.02;36.96
58757;BME280;44527;47.460;19.016;2022-09-09T13:55:11;99964.84;;;27.14;35.33
58757;BME280;44527;47.460;19.016;2022-09-09T13:58:17;99961.00;;;27.29;33.48
58757;BME280;44527;47.460;19.016;2022-09-09T14:01:20;99957.03;;;27.56;35.17
58757;BME280;44527;47.460;19.016;2022-09-09T14:04:28;99949.84;;;27.93;34.83
58757;BME280;44527;47.460;19.016;2022-09-09T14:07:31;99940.31;;;28.09;34.80
58757;BME280;44527;47.460;19.016;2022-09-09T14:10:34;99938.03;;;27.69;34.59
58757;BME280;44527;47.460;19.016;2022-09-09T14:13:39;99939.31;;;27.42;36.33
58757;BME280;44527;47.460;19.016;2022-09-09T14:16:42;99927.59;;;27.04;37.63
58757;BME280;44527;47.460;19.016;2022-09-09T14:19:44;99924.13;;;26.72;35.36
58757;BME280;44527;47.460;19.016;2022-09-09T14:22:48;99930.03;;;26.49;36.66
58757;BME280;44527;47.460;19.016;2022-09-09T14:25:51;99931.53;;;26.32;36.34
58757;BME280;44527;47.460;19.016;2022-09-09T14:28:56;99936.91;;;26.32;38.50
58757;BME280;44527;47.460;19.016;2022-09-09T14:31:59;99930.75;;;26.25;36.54
58757;BME280;44527;47.460;19.016;2022-09-09T14:35:03;99931.16;;;26.22;38.15
58757;BME280;44527;47.460;19.016;2022-09-09T14:38:08;99927.00;;;26.26;39.31
58757;BME280;44527;47.460;19.016;2022-09-09T14:41:13;99923.66;;;26.37;38.00
58757;BME280;44527;47.460;19.016;2022-09-09T14:44:18;99920.56;;;26.33;37.51
58757;BME280;44527;47.460;19.016;2022-09-09T14:47:21;99926.78;;;26.34;37.05
58757;BME280;44527;47.460;19.016;2022-09-09T14:50:24;99921.62;;;26.26;39.86
58757;BME280;44527;47.460;19.016;2022-09-09T14:53:26;99921.31;;;25.96;37.65
58757;BME280;44527;47.460;19.016;2022-09-09T14:56:31;99933.56;;;25.92;39.11
58757;BME280;44527;47.460;19.016;2022-09-09T14:59:33;99930.88;;;25.92;38.05
58757;BME280;44527;47.460;19.016;2022-09-09T15:02:36;99930.66;;;25.80;38.01
58757;BME280;44527;47.460;19.016;2022-09-09T15:05:38;99931.94;;;25.84;41.13
58757;BME280;44527;47.460;19.016;2022-09-09T15:08:42;99924.28;;;25.87;40.77
58757;BME280;44527;47.460;19.016;2022-09-09T15:11:45;99933.34;;;25.86;41.29
58757;BME280;44527;47.460;19.016;2022-09-09T15:14:48;99934.41;;;25.85;37.54
58757;BME280;44527;47.460;19.016;2022-09-09T15:17:50;99928.41;;;25.90;39.78
58757;BME280;44527;47.460;19.016;2022-09-09T15:20:52;99919.28;;;25.91;37.45
58757;BME280;44527;47.460;19.016;2022-09-09T15:23:56;99920.47;;;26.02;37.62
58757;BME280;44527;47.460;19.016;2022-09-09T15:26:59;99926.09;;;26.00;38.12
58757;BME280;44527;47.460;19.016;2022-09-09T15:30:02;99926.84;;;26.14;38.43
58757;BME280;44527;47.460;19.016;2022-09-09T15:33:08;99924.78;;;26.16;38.89
58757;BME280;44527;47.460;19.016;2022-09-09T15:36:16;99925.41;;;26.18;38.92
58757;BME280;44527;47.460;19.016;2022-09-09T15:39:19;99919.63;;;26.08;39.90
58757;BME280;44527;47.460;19.016;2022-09-09T15:42:21;99926.97;;;25.87;39.65
58757;BME280;44527;47.460;19.016;2022-09-09T15:45:23;99930.03;;;25.71;39.02
58757;BME280;44527;47.460;19.016;2022-09-09T15:48:32;99924.72;;;25.51;40.97
58757;BME280;44527;47.460;19.016;2022-09-09T15:51:35;99930.53;;;25.28;42.11
58757;BME280;44527;47.460;19.016;2022-09-09T15:54:44;99917.09;;;25.15;41.96
58757;BME280;44527;47.460;19.016;2022-09-09T15:57:47;99923.91;;;25.04;42.72
58757;BME280;44527;47.460;19.016;2022-09-09T16:00:49;99917.28;;;25.00;43.22
58757;BME280;44527;47.460;19.016;2022-09-09T16:03:53;99915.22;;;24.89;43.54
58757;BME280;44527;47.460;19.016;2022-09-09T16:06:57;99921.81;;;24.80;43.69
58757;BME280;44527;47.460;19.016;2022-09-09T16:10:03;99928.81;;;24.67;44.01
58757;BME280;44527;47.460;19.016;2022-09-09T16:13:05;99934.34;;;24.59;42.77
58757;BME280;44527;47.460;19.016;2022-09-09T16:16:10;99938.25;;;24.57;42.53
58757;BME280;44527;47.460;19.016;2022-09-09T16:19:14;99940.72;;;24.51;43.03
58757;BME280;44527;47.460;19.016;2022-09-09T16:22:16;99942.38;;;24.46;44.36
58757;BME280;44527;47.460;19.016;2022-09-09T16:25:19;99940.00;;;24.36;44.68
58757;BME280;44527;47.460;19.016;2022-09-09T16:28:23;99937.72;;;24.26;44.88
58757;BME280;44527;47.460;19.016;2022-09-09T16:31:27;99938.91;;;24.17;44.14
58757;BME280;44527;47.460;19.016;2022-09-09T16:34:30;99940.50;;;24.05;45.58
58757;BME280;44527;47.460;19.016;2022-09-09T16:37:32;99941.28;;;23.92;46.10
58757;BME280;44527;47.460;19.016;2022-09-09T16:40:37;99937.06;;;23.76;45.45
58757;BME280;44527;47.460;19.016;2022-09-09T16:43:40;99941.03;;;23.59;45.71
58757;BME280;44527;47.460;19.016;2022-09-09T16:46:43;99931.63;;;23.42;47.88
58757;BME280;44527;47.460;19.016;2022-09-09T16:49:46;99933.41;;;23.28;47.90
58757;BME280;44527;47.460;19.016;2022-09-09T16:52:48;99923.78;;;23.12;48.52
58757;BME280;44527;47.460;19.016;2022-09-09T16:55:50;99933.75;;;22.97;47.94
58757;BME280;44527;47.460;19.016;2022-09-09T16:58:55;99936.25;;;22.83;48.29
58757;BME280;44527;47.460;19.016;2022-09-09T17:01:57;99942.28;;;22.70;48.88
58757;BME280;44527;47.460;19.016;2022-09-09T17:04:59;99946.94;;;22.62;49.67
58757;BME280;44527;47.460;19.016;2022-09-09T17:08:02;99948.81;;;22.46;48.85
58757;BME280;44527;47.460;19.016;2022-09-09T17:11:19;99945.19;;;22.33;52.18
58757;BME280;44527;47.460;19.016;2022-09-09T17:14:21;99944.66;;;22.22;52.87
58757;BME280;44527;47.460;19.016;2022-09-09T17:17:24;99939.53;;;22.13;52.54
58757;BME280;44527;47.460;19.016;2022-09-09T17:20:41;99948.22;;;22.00;52.97
58757;BME280;44527;47.460;19.016;2022-09-09T17:23:48;99960.75;;;21.85;53.48